Dauntless Aviation
Airports North America United States Colorado
98CO

NCMC HELIPORT

GREELEY, CO, USA

Airport Info
Suggest Updated Information for this Airport

Location

Latitude / Longitude: 40°24'53"N / 104°42'28"W
  40°24.9'N / 104°42.4667'W
  40.4150 / -104.7078
Elevation: 4882 ft. (estimated)
Variation: 12E (1985)
From city: 00 miles N of GREELEY, CO

Operations

Facility use: Private
Sectional chart: DENVER
Control tower: no
Boundary ARTCC: DENVER
FSS: DENVER [1-800-WX-BRIEF]
Segmented circle: no

Communications

Nearby radio navigation aids

VOR radial/distance VOR name Freq Var
GLL 233oT/8.9 GILL VORTAC 114.20 13E
DVV 353oT/31.5 MILE HIGH VORTAC 114.70 11E
BJC 33oT/36.1 JEFFCO VOR/DME 115.40 11E
DEN 357oT/36.2 DENVER VOR/DME 117.90 11E
 
NDB name Hdg/Dist Freq Var ID

Services

Runway Information

Helipad H1

Dimensions: 40 x 40 ft.
Surface: PORTLAND CEMENT CONCRETE,NO SPECIAL SURFACE TREATMENT
 

Additional Remarks

Instrument Procedures

No published instrument procedures available
Topographic chart at:
Satellite photo at:
Airport distance calculator
From:
Weather Reports

METAR

KGXY
4.2nm NE
KGXY 240056Z AUTO 14009KT 10SM CLR 22/03 A2967 RMK AO2 SLP032 T02220028
KFNL
14.3nm W
KFNL 240056Z AUTO 34007KT 10SM CLR 18/06 A2970 RMK AO2 SLP032 T01830061
KLMO
25.8nm SW
KLMO 240135Z AUTO 35006KT 10SM CLR 17/06 A2970 RMK AO2 T01730061
KEIK
28.6nm S
KEIK 240134Z AUTO 34006KT 10SM CLR 17/05 A2968 RMK AO2 T01680045
KBDU
33.3nm SW
KBDU 240137Z AUTO 31003KT 10SM CLR 17/05 A2969 RMK AO2
KDEN
34.0nm SE
KDEN 240053Z 16009KT 10SM FEW120 BKN220 20/03 A2967 RMK AO2 SLP998 T02000028 $

TAF

KDEN
34.0nm SE
KDEN 240100Z 2401/2506 17014KT P6SM FEW140 BKN220 FM240600 20007KT P6SM BKN220 FM240900 36011KT P6SM BKN200 FM241100 08006KT P6SM FEW140 BKN200 FM241300 VRB06KT P6SM FEW090 BKN200 FM241600 15010KT P6SM SCT090 BKN200 FM250300 36011KT P6SM SCT080 BKN140
KBJC
35.8nm S
KBJC 232326Z 2400/2424 01006KT P6SM FEW140 BKN220 FM240200 26010KT P6SM FEW140 BKN220 FM240900 35011KT P6SM FEW140 BKN220 FM241100 VRB05KT P6SM FEW140 BKN200 FM241800 23006KT P6SM FEW090 BKN200
Safelog

 

Dauntless Aviation

© 2007-2017 Dauntless Aviation, all rights reserved
Information provided via PilotNav comes from a variety of official and unofficial data sources. As errors are possible, do not use PilotNav for primary flight planning purposes. Verify any information that you receive via PilotNav with current and canonical charts and other official documents. The material in this database is subject to database copyrights held by Dauntless Aviation and may not be copied without the express permission of Dauntless Aviation - licenses for use of part of all of this data are available for purchase; enquire via the Dauntless Aviation helpdesk. A number of mechanisms and markers exist in the database to protect against and identify infringement / copyright. Automated queries against this website are stictly prohibited, and all activity is logged and analyzed.